Eaton Park, FL (33840)

10:13 AM EST on March 01, 2015 (GMT -0500)
Woodlake Garden Patio Homes | Change Station
CLOSE
Current Station
Personal Weather Station
Location: Lakeland, FL
Elevation: 128 ft
Nearby Weather Stations

Elev 128 ft 28.00 °N, 81.93 °W | Updated 3 minutes ago

Overcast
Overcast
76.1 °F
Feels Like 77 °F
N
0.0
Wind Variable Wind from SE
Gusts 0.0 mph

Today
High -- | Low -- °F
--% Chance of Precip.
Yesterday
High -- | Low -- °F
Precip. -- in
6:52 AM 6:27 PM
Waxing Gibbous, 85% visible
Pressure 30.37 in
Visibility 10.0 miles
Clouds Mostly Cloudy 1300 ft
Heat Index 77 °F
Dew Point 71 °F
Humidity 83%
Rainfall 0.00 in
Snow Depth Not available.
UV 3 out of 12
Pollen 9.80 out of 12
Air Quality Not available.
Flu Activity Not available.
SPECI KLAL 011510Z 09008KT 10SM BKN013 23/20 A3037

More Conditions Fewer Conditions

Pressure 30.37 in
Visibility 10.0 miles
Clouds Mostly Cloudy 1300 ft
Heat Index 77 °F
Dew Point 71 °F
Humidity 83%
Rainfall 0.00 in
Snow Depth Not available.
UV 3 out of 12
Pollen 9.80 out of 12
Air Quality Not available.
Flu Activity Not available.
SPECI KLAL 011510Z 09008KT 10SM BKN013 23/20 A3037

More Conditions Fewer Conditions

10-Day Weather Forecast

Almanac

Astronomy

Mar. 01, 2015 Rise Set
Actual Time
Civil Twilight
Nautical Twilight
Astronomical Twilight
Moon
Length of Visible Light
Length of Day
Tomorrow will be .
, % of the Moon is Illuminated

Today's Extremes

State Highs State Lows

Community

WunderPhotos

Upload Photos

1,801,410 photos uploaded!

WunderBlogs® & News

Nearby

Air Quality

  Air Quality AQ Index Pollutant
Not available.

Snow Depth

Station Depth Elevation

Earthquake Activity

City Distance Mag. Time & Date
Minimum magnitude displayed is 2.5.

Coastal Water Temperatures

Place Temperature

Nearby Weather Stations